Time;durP1;ratioP1;P1;durP2;ratioP2;P2;SDS_P1;SDS_P2;PMS_P1;PMS_P2;Temp;Humidity;BMP_temperature;BMP_pressure;BME280_temperature;BME280_humidity;BME280_pressure;Samples;Min_cycle;Max_cycle;Signal;HPM_P1;HPM_P2
2022/11/11 00:00:30;;;;;;;208.65;116.70;;;282.10;2278.40;;;;;;5039942;28;20024;-84
2022/11/11 00:02:56;;;;;;;187.23;104.68;;;282.10;2278.40;;;;;;5039745;28;20024;-85
2022/11/11 00:05:23;;;;;;;181.65;105.97;;;282.20;2278.40;;;;;;5067095;28;20048;-85
2022/11/11 00:07:51;;;;;;;147.80;91.55;;;282.20;2278.40;;;;;;5076499;28;20047;-85
2022/11/11 00:10:16;;;;;;;128.23;77.43;;;282.40;2278.40;;;;;;5076229;28;20035;-85
2022/11/11 00:12:42;;;;;;;113.32;65.55;;;282.50;2022.40;;;;;;5076698;28;20115;-84
2022/11/11 00:15:08;;;;;;;99.47;58.65;;;307.30;2304.00;;;;;;5076006;28;20395;-87
2022/11/11 00:25:52;;;;;;;104.72;57.92;;;307.80;2304.00;;;;;;5076972;28;20044;-84
2022/11/11 00:28:18;;;;;;;86.13;51.88;;;307.90;2304.00;;;;;;5075895;28;20033;-83
2022/11/11 00:30:44;;;;;;;93.00;54.17;;;308.00;2304.00;;;;;;5076144;28;20353;-83
2022/11/11 00:33:10;;;;;;;97.70;56.92;;;308.10;2304.00;;;;;;5075309;28;20028;-84
2022/11/11 00:35:54;;;;;;;102.03;63.05;;;308.10;2304.00;;;;;;5077093;28;20024;-84
2022/11/11 00:41:05;;;;;;;111.30;65.63;;;308.10;2304.00;;;;;;5077164;28;20032;-84
2022/11/11 00:43:31;;;;;;;101.82;64.35;;;308.10;2304.00;;;;;;5075785;28;20357;-83
2022/11/11 00:50:57;;;;;;;97.85;63.30;;;308.10;2304.00;;;;;;5075278;28;20043;-85
2022/11/11 00:51:28;;;;;;;102.63;63.88;;;308.10;2176.00;;;;;;5077567;28;20032;-84
2022/11/11 00:53:54;;;;;;;90.55;56.35;;;308.10;2304.00;;;;;;5075631;28;20024;-83
2022/11/11 00:56:21;;;;;;;77.07;52.22;;;332.80;1996.80;;;;;;5076182;28;20139;-86
2022/11/11 00:58:47;;;;;;;84.18;49.75;;;332.80;1971.20;;;;;;5075625;28;20115;-84
2022/11/11 01:01:13;;;;;;;69.28;46.90;;;332.90;2329.60;;;;;;5075749;28;20052;-85
2022/11/11 01:03:39;;;;;;;71.28;48.42;;;332.90;2329.60;;;;;;5074308;28;20024;-85
2022/11/11 01:06:05;;;;;;;70.78;47.88;;;332.90;2329.60;;;;;;5038961;28;20043;-84
2022/11/11 01:08:32;;;;;;;68.35;47.97;;;332.90;2329.60;;;;;;5038678;28;20025;-84
2022/11/11 01:10:58;;;;;;;67.13;47.38;;;307.90;2304.00;;;;;;5038995;28;20051;-86
2022/11/11 01:13:27;;;;;;;67.65;44.92;;;332.90;2329.60;;;;;;5039216;28;20033;-84
2022/11/11 01:16:00;;;;;;;67.60;46.80;;;333.00;2329.60;;;;;;5075831;28;20033;-83
2022/11/11 01:18:27;;;;;;;65.10;45.20;;;333.00;1945.60;;;;;;5058256;28;20071;-84
2022/11/11 01:21:04;;;;;;;63.58;42.95;;;333.00;2329.60;;;;;;5058507;28;20024;-84
2022/11/11 01:23:32;;;;;;;63.22;42.97;;;333.00;2329.60;;;;;;5058448;28;20111;-83
2022/11/11 01:26:25;;;;;;;63.45;42.22;;;333.00;2329.60;;;;;;5058623;28;20040;-83
2022/11/11 01:28:51;;;;;;;;;;;333.00;2329.60;;;;;;5055727;28;20036;-84
2022/11/11 01:31:19;;;;;;;50.33;34.47;;;333.00;2329.60;;;;;;5058614;28;19915;-85
2022/11/11 01:33:45;;;;;;;47.80;32.97;;;333.00;2329.60;;;;;;5075990;28;20031;-83
2022/11/11 01:36:17;;;;;;;45.30;31.60;;;333.00;2329.60;;;;;;5057918;28;20025;-84
2022/11/11 01:38:47;;;;;;;44.47;30.40;;;333.00;2329.60;;;;;;5058253;28;20055;-84
2022/11/11 01:41:37;;;;;;;36.28;27.80;;;333.10;2329.60;;;;;;5057606;28;20142;-84
2022/11/11 01:44:12;;;;;;;34.72;27.42;;;333.00;2329.60;;;;;;5057412;28;20025;-84
2022/11/11 01:46:43;;;;;;;31.73;23.67;;;333.00;2329.60;;;;;;5057970;28;20407;-84
2022/11/11 01:49:30;;;;;;;29.85;23.63;;;333.00;2329.60;;;;;;5058380;28;20063;-83
2022/11/11 01:52:01;;;;;;;30.35;22.67;;;333.00;2329.60;;;;;;5058073;28;20165;-86
2022/11/11 01:54:27;;;;;;;31.55;23.20;;;333.00;2329.60;;;;;;5057684;28;20025;-83
2022/11/11 01:57:09;;;;;;;31.58;22.85;;;333.00;2329.60;;;;;;5058206;28;20028;-83
2022/11/11 01:59:38;;;;;;;26.33;21.52;;;333.00;2329.60;;;;;;5060275;28;20032;-85
2022/11/11 02:02:13;;;;;;;29.83;20.95;;;332.90;2329.60;;;;;;5061033;28;20036;-84
2022/11/11 02:07:25;;;;;;;32.95;21.27;;;332.90;2329.60;;;;;;5098487;28;20039;-84
2022/11/11 02:09:51;;;;;;;35.83;25.55;;;332.80;2329.60;;;;;;5097550;28;20024;-84
2022/11/11 02:15:03;;;;;;;35.53;25.60;;;332.80;2329.60;;;;;;5096381;28;20529;-84
2022/11/11 02:17:31;;;;;;;38.58;25.38;;;332.80;2329.60;;;;;;5093899;28;20020;-83
2022/11/11 02:20:00;;;;;;;41.40;28.02;;;332.80;2329.60;;;;;;5094132;28;20020;-84
2022/11/11 02:22:46;;;;;;;39.83;27.48;;;332.80;2329.60;;;;;;5094426;28;20020;-85
2022/11/11 02:25:17;;;;;;;44.30;27.02;;;332.80;2329.60;;;;;;5093918;28;20036;-85
2022/11/11 02:27:45;;;;;;;43.38;28.83;;;308.10;2304.00;;;;;;5094172;28;20463;-84
2022/11/11 02:30:15;;;;;;;46.42;29.52;;;308.10;2304.00;;;;;;5093860;28;20031;-85
2022/11/11 02:32:48;;;;;;;45.00;28.67;;;308.10;2304.00;;;;;;5105904;28;20075;-84
2022/11/11 02:35:25;;;;;;;45.80;29.00;;;308.10;2304.00;;;;;;5118850;28;20012;-86
2022/11/11 02:37:52;;;;;;;43.17;27.90;;;308.10;2304.00;;;;;;5128403;28;20083;-85
2022/11/11 02:40:30;;;;;;;45.47;29.63;;;308.10;2304.00;;;;;;5114788;28;20035;-84
2022/11/11 02:42:56;;;;;;;44.97;29.65;;;308.10;2304.00;;;;;;5114653;28;20076;-85
2022/11/11 02:45:22;;;;;;;44.83;30.27;;;308.10;2304.00;;;;;;5115617;28;20027;-84
2022/11/11 02:47:48;;;;;;;48.20;30.20;;;308.10;2304.00;;;;;;5114701;28;20464;-85
2022/11/11 02:50:14;;;;;;;44.83;29.65;;;308.10;2304.00;;;;;;5114237;28;20490;-85
2022/11/11 02:52:39;;;;;;;51.28;31.83;;;308.10;2304.00;;;;;;5114526;28;20382;-84
2022/11/11 02:55:06;;;;;;;54.58;33.08;;;308.10;2304.00;;;;;;5121801;28;20053;-83
2022/11/11 02:57:32;;;;;;;47.90;31.33;;;308.00;2304.00;;;;;;5135867;28;20015;-83
2022/11/11 02:59:59;;;;;;;49.60;31.20;;;308.10;2304.00;;;;;;5124029;28;20062;-84
2022/11/11 03:02:26;;;;;;;55.35;32.47;;;308.00;2304.00;;;;;;5113853;28;20380;-84
2022/11/11 03:04:56;;;;;;;55.97;33.30;;;308.10;2304.00;;;;;;5113441;28;20055;-85
2022/11/11 03:07:24;;;;;;;52.95;32.10;;;308.10;2304.00;;;;;;5113621;28;20486;-85
2022/11/11 03:09:50;;;;;;;56.13;33.50;;;308.10;2304.00;;;;;;5113713;28;20051;-84
2022/11/11 03:12:16;;;;;;;53.40;34.25;;;308.10;2304.00;;;;;;5113275;28;20066;-85
2022/11/11 03:14:42;;;;;;;54.10;33.20;;;308.10;2304.00;;;;;;5113659;28;20030;-84
2022/11/11 03:21:03;;;;;;;49.70;30.92;;;308.10;2304.00;;;;;;5114756;28;20043;-86
2022/11/11 03:22:39;;;;;;;52.42;31.95;;;308.10;2304.00;;;;;;5114470;28;20463;-86
2022/11/11 03:27:49;;;;;;;52.90;32.35;;;308.10;2304.00;;;;;;5114788;28;20057;-85
2022/11/11 03:30:15;;;;;;;46.85;28.75;;;308.10;2304.00;;;;;;5114082;28;20028;-85
2022/11/11 03:32:42;;;;;;;49.10;30.10;;;332.80;2329.60;;;;;;5113507;28;20031;-85
2022/11/11 03:35:08;;;;;;;50.70;29.42;;;332.80;2329.60;;;;;;5113406;28;20031;-84
2022/11/11 03:40:19;;;;;;;50.00;28.63;;;332.80;2329.60;;;;;;5114951;28;20079;-84
2022/11/11 03:42:45;;;;;;;46.55;30.35;;;332.80;2329.60;;;;;;5113733;28;20024;-84
2022/11/11 03:45:10;;;;;;;46.03;29.17;;;332.80;2329.60;;;;;;5113460;28;20042;-85
2022/11/11 03:47:36;;;;;;;47.75;29.23;;;332.80;2329.60;;;;;;5113588;28;20024;-84
2022/11/11 03:50:02;;;;;;;48.33;32.67;;;332.80;2329.60;;;;;;5113183;28;20391;-83
2022/11/11 03:52:28;;;;;;;61.85;35.50;;;332.80;2329.60;;;;;;5113337;28;20026;-84
2022/11/11 03:54:54;;;;;;;111.43;52.22;;;332.80;2329.60;;;;;;5113404;28;20034;-84
2022/11/11 03:57:31;;;;;;;69.05;39.88;;;332.80;2329.60;;;;;;5113367;28;20030;-86
2022/11/11 03:59:58;;;;;;;56.03;32.90;;;332.80;2329.60;;;;;;5113255;28;20027;-83
2022/11/11 04:10:36;;;;;;;61.97;33.97;;;332.80;2329.60;;;;;;5097799;28;20170;-84
2022/11/11 04:16:06;;;;;;;60.30;35.83;;;308.10;2304.00;;;;;;5097692;28;20382;-84
2022/11/11 04:26:49;;;;;;;45.38;28.70;;;332.80;2329.60;;;;;;5097805;28;20043;-84
2022/11/11 04:29:27;;;;;;;46.08;29.45;;;332.80;2329.60;;;;;;5079232;28;20028;-85
2022/11/11 04:34:39;;;;;;;42.05;27.63;;;332.80;2329.60;;;;;;5097525;28;20031;-84
2022/11/11 04:37:05;;;;;;;44.50;27.75;;;332.80;2329.60;;;;;;5061739;28;20035;-84
2022/11/11 04:42:15;;;;;;;42.58;26.70;;;332.80;2329.60;;;;;;5056878;28;20492;-85
2022/11/11 04:47:25;;;;;;;40.70;27.45;;;332.90;2329.60;;;;;;5097194;28;20047;-84
2022/11/11 04:49:51;;;;;;;43.15;27.92;;;332.80;2329.60;;;;;;5078179;28;20460;-85
2022/11/11 04:52:26;;;;;;;36.70;25.63;;;332.80;2329.60;;;;;;5069447;28;20123;-86
2022/11/11 04:57:41;;;;;;;44.80;32.03;;;332.90;2329.60;;;;;;5076528;28;20035;-84
2022/11/11 05:00:09;;;;;;;57.88;38.67;;;332.90;2329.60;;;;;;5076683;28;20028;-84
2022/11/11 05:05:21;;;;;;;96.50;68.53;;;332.90;2329.60;;;;;;5076683;28;20438;-85
2022/11/11 05:10:31;;;;;;;61.95;41.58;;;332.90;2329.60;;;;;;5076576;28;20043;-84
2022/11/11 05:21:19;;;;;;;54.38;35.80;;;332.90;2329.60;;;;;;5058382;28;20021;-86
2022/11/11 05:21:19;;;;;;;51.53;32.97;;;332.90;2329.60;;;;;;5076377;28;20035;-84
2022/11/11 05:26:30;;;;;;;47.88;32.00;;;332.90;2329.60;;;;;;5055786;28;20201;-83
2022/11/11 05:28:55;;;;;;;42.88;29.80;;;332.90;2329.60;;;;;;5038351;28;20075;-84
2022/11/11 05:31:21;;;;;;;50.97;33.15;;;332.90;2329.60;;;;;;5038374;28;20025;-85
2022/11/11 05:33:47;;;;;;;42.80;30.75;;;333.00;2329.60;;;;;;5038267;28;20472;-85
2022/11/11 05:36:13;;;;;;;46.85;29.90;;;333.00;2329.60;;;;;;5038155;28;20078;-84
2022/11/11 05:38:38;;;;;;;45.63;32.10;;;333.00;2329.60;;;;;;5038037;28;20025;-84
2022/11/11 05:41:04;;;;;;;51.38;33.33;;;333.00;2329.60;;;;;;5037884;28;20036;-84
2022/11/11 05:43:30;;;;;;;55.60;34.47;;;333.00;2329.60;;;;;;5038585;28;20384;-85
2022/11/11 05:45:56;;;;;;;63.53;38.30;;;333.00;2329.60;;;;;;5049619;28;20039;-85
2022/11/11 05:48:22;;;;;;;59.58;35.17;;;333.00;2329.60;;;;;;5037934;28;20370;-85
2022/11/11 05:50:47;;;;;;;58.67;37.38;;;333.10;2329.60;;;;;;5054939;28;20033;-86
2022/11/11 05:53:13;;;;;;;63.00;36.65;;;333.00;2329.60;;;;;;5037863;28;20029;-84
2022/11/11 05:55:39;;;;;;;55.90;34.25;;;333.00;2329.60;;;;;;5055652;28;20025;-85
2022/11/11 05:58:05;;;;;;;58.28;35.70;;;333.00;2329.60;;;;;;5038235;28;20024;-85
2022/11/11 06:00:30;;;;;;;59.08;35.72;;;333.00;2329.60;;;;;;5055689;28;20032;-85
2022/11/11 06:03:04;;;;;;;42.47;28.60;;;333.00;2329.60;;;;;;5060963;28;20025;-83
2022/11/11 06:05:30;;;;;;;66.38;39.20;;;333.00;2329.60;;;;;;5086511;28;20070;-82
2022/11/11 06:07:56;;;;;;;63.25;39.33;;;333.00;2329.60;;;;;;5084759;28;20024;-84
2022/11/11 06:10:31;;;;;;;50.95;31.90;;;333.10;2329.60;;;;;;5074093;28;20024;-84
2022/11/11 06:13:09;;;;;;;63.55;41.80;;;333.10;2329.60;;;;;;5075314;28;20024;-85
2022/11/11 06:15:40;;;;;;;39.38;27.65;;;333.00;2329.60;;;;;;5086421;28;20102;-85
2022/11/11 06:18:06;;;;;;;36.70;25.33;;;333.10;2329.60;;;;;;5094094;28;20039;-84
2022/11/11 06:20:35;;;;;;;35.30;25.48;;;333.10;2329.60;;;;;;5093895;28;20026;-85
2022/11/11 06:23:03;;;;;;;34.40;24.65;;;333.10;2329.60;;;;;;5094018;28;20024;-84
2022/11/11 06:28:16;;;;;;;40.20;26.58;;;333.10;2329.60;;;;;;5095104;28;20027;-84
2022/11/11 06:30:43;;;;;;;38.03;26.92;;;333.10;2329.60;;;;;;5093341;28;20080;-85
2022/11/11 06:33:09;;;;;;;33.65;23.77;;;333.20;2329.60;;;;;;5094066;28;20072;-84
2022/11/11 06:35:36;;;;;;;34.65;23.17;;;333.20;2329.60;;;;;;5094349;28;20421;-84
2022/11/11 06:38:03;;;;;;;33.95;24.13;;;333.20;2329.60;;;;;;5093877;28;20059;-86
2022/11/11 06:40:29;;;;;;;36.20;25.15;;;333.20;2329.60;;;;;;5093813;28;20028;-84
2022/11/11 06:42:59;;;;;;;33.60;22.65;;;333.20;2329.60;;;;;;5094046;28;20024;-84
2022/11/11 06:45:27;;;;;;;33.95;24.25;;;333.20;2329.60;;;;;;5093711;28;20028;-86
2022/11/11 06:47:53;;;;;;;34.30;24.75;;;333.20;2329.60;;;;;;5093660;28;20536;-85
2022/11/11 06:50:19;;;;;;;32.33;23.42;;;333.20;2329.60;;;;;;5093492;28;20032;-85
2022/11/11 06:52:45;;;;;;;35.38;23.60;;;333.30;2329.60;;;;;;5093823;28;20098;-86
2022/11/11 06:55:11;;;;;;;31.48;22.02;;;333.30;2329.60;;;;;;5093714;28;20032;-84
2022/11/11 06:57:37;;;;;;;32.05;23.75;;;333.30;2329.60;;;;;;5093628;28;20282;-84
2022/11/11 07:00:05;;;;;;;31.35;21.75;;;333.30;2329.60;;;;;;5093455;28;20024;-84
2022/11/11 07:02:31;;;;;;;37.85;25.95;;;333.40;2329.60;;;;;;5093579;28;20387;-84
2022/11/11 07:04:57;;;;;;;40.33;27.50;;;333.40;2329.60;;;;;;5093102;28;20048;-85
2022/11/11 07:07:23;;;;;;;33.90;27.63;;;333.40;2329.60;;;;;;5093890;28;20460;-85
2022/11/11 07:09:49;;;;;;;32.92;22.92;;;333.40;2329.60;;;;;;5093998;28;20025;-84
2022/11/11 07:12:14;;;;;;;29.05;20.98;;;333.50;2329.60;;;;;;5094102;28;20069;-84
2022/11/11 07:14:40;;;;;;;28.73;22.77;;;333.50;2329.60;;;;;;5093692;28;20379;-84
2022/11/11 07:17:06;;;;;;;28.60;21.60;;;333.50;2329.60;;;;;;5093362;28;20035;-85
2022/11/11 07:19:32;;;;;;;27.00;18.80;;;333.60;2329.60;;;;;;5093406;28;20364;-84
2022/11/11 07:21:58;;;;;;;31.13;21.17;;;333.60;2329.60;;;;;;5094518;28;20111;-86
2022/11/11 07:24:23;;;;;;;29.35;20.60;;;333.60;2329.60;;;;;;5093297;28;20027;-84
2022/11/11 07:26:49;;;;;;;28.92;20.77;;;333.60;2329.60;;;;;;5094793;28;20032;-84
2022/11/11 07:29:15;;;;;;;27.35;19.73;;;333.60;2329.60;;;;;;5093673;28;20430;-85
2022/11/11 07:31:41;;;;;;;36.25;24.30;;;333.60;2329.60;;;;;;5093204;28;20024;-84
2022/11/11 07:34:07;;;;;;;32.83;21.42;;;333.60;2329.60;;;;;;5093418;28;20442;-83
2022/11/11 07:36:33;;;;;;;32.33;21.98;;;333.60;2329.60;;;;;;5093137;28;20028;-84
2022/11/11 07:38:59;;;;;;;26.48;19.83;;;333.70;2329.60;;;;;;5093057;28;20024;-85
2022/11/11 07:41:25;;;;;;;30.90;23.60;;;333.60;2329.60;;;;;;5093391;28;20020;-85
2022/11/11 07:43:51;;;;;;;28.35;20.45;;;333.70;2329.60;;;;;;5097404;28;20442;-85
2022/11/11 07:46:18;;;;;;;29.13;21.02;;;333.70;2329.60;;;;;;5091200;28;20036;-84
2022/11/11 07:48:43;;;;;;;28.80;19.77;;;358.60;2329.60;;;;;;5076679;28;20033;-84
2022/11/11 07:51:09;;;;;;;31.77;22.80;;;358.50;2329.60;;;;;;5076447;28;20074;-85
2022/11/11 07:53:35;;;;;;;32.42;21.85;;;358.50;2329.60;;;;;;5076593;28;20025;-84
2022/11/11 07:56:01;;;;;;;30.52;21.48;;;358.50;2329.60;;;;;;5078188;28;20033;-84
2022/11/11 07:58:27;;;;;;;34.42;24.15;;;358.80;2329.60;;;;;;5076708;28;20499;-85
2022/11/11 08:00:53;;;;;;;37.15;24.63;;;358.70;2329.60;;;;;;5077210;28;20029;-85
2022/11/11 08:03:18;;;;;;;33.88;24.48;;;358.80;2329.60;;;;;;5076557;28;20111;-85
2022/11/11 08:05:44;;;;;;;41.17;27.02;;;358.80;2329.60;;;;;;5076042;28;20048;-85
2022/11/11 08:08:10;;;;;;;49.45;36.38;;;358.90;2329.60;;;;;;5076467;28;20028;-85
2022/11/11 08:10:36;;;;;;;63.35;43.20;;;359.00;2329.60;;;;;;5076559;28;20021;-84
2022/11/11 08:15:47;;;;;;;54.28;39.38;;;359.00;2329.60;;;;;;5077419;28;20431;-85
2022/11/11 08:18:13;;;;;;;39.38;29.27;;;359.10;2329.60;;;;;;5076941;28;20017;-85
2022/11/11 08:20:39;;;;;;;33.90;23.83;;;359.10;2329.60;;;;;;5076176;28;20082;-84
2022/11/11 08:23:09;;;;;;;38.47;25.63;;;359.00;2329.60;;;;;;5076139;28;20040;-85
2022/11/11 08:25:35;;;;;;;37.88;25.45;;;359.00;2329.60;;;;;;5075919;28;20033;-85
2022/11/11 08:28:04;;;;;;;33.13;24.70;;;359.00;2329.60;;;;;;5075962;28;20426;-85
2022/11/11 08:30:31;;;;;;;35.45;24.85;;;358.90;2329.60;;;;;;5076013;28;20051;-84
2022/11/11 08:33:02;;;;;;;32.28;22.50;;;358.90;2329.60;;;;;;5076075;28;20029;-85
2022/11/11 08:35:28;;;;;;;29.40;19.25;;;358.80;2329.60;;;;;;5076092;28;20029;-84
2022/11/11 08:37:55;;;;;;;32.28;22.20;;;358.80;2329.60;;;;;;5076696;28;20050;-85
2022/11/11 08:40:21;;;;;;;31.02;21.65;;;358.70;2329.60;;;;;;5077849;28;20025;-87
2022/11/11 08:42:47;;;;;;;28.05;18.85;;;358.80;2329.60;;;;;;5076272;28;20029;-86
2022/11/11 08:45:13;;;;;;;29.77;19.02;;;358.70;2329.60;;;;;;5076099;28;20456;-85
2022/11/11 08:47:39;;;;;;;26.63;19.30;;;358.70;2329.60;;;;;;5076071;28;20025;-86
2022/11/11 08:50:06;;;;;;;27.10;18.60;;;358.60;2329.60;;;;;;5076159;28;20024;-86
2022/11/11 08:52:32;;;;;;;27.80;18.40;;;358.60;2329.60;;;;;;5076495;28;20021;-87
2022/11/11 08:55:00;;;;;;;23.13;16.27;;;358.60;2329.60;;;;;;5078787;28;20123;-90
2022/11/11 08:57:26;;;;;;;25.55;18.27;;;358.60;2329.60;;;;;;5088325;28;20040;-90
2022/11/11 08:59:52;;;;;;;27.02;19.52;;;358.60;2329.60;;;;;;5114661;28;20038;-89
2022/11/11 09:02:18;;;;;;;24.73;17.05;;;358.60;2329.60;;;;;;5120229;28;20341;-90
2022/11/11 09:04:43;;;;;;;24.85;18.75;;;358.60;2329.60;;;;;;5118823;28;20056;-88
2022/11/11 09:07:11;;;;;;;29.33;21.35;;;358.60;2329.60;;;;;;5117797;28;20032;-90
2022/11/11 09:09:36;;;;;;;28.15;19.02;;;358.60;2329.60;;;;;;5118911;28;20071;-89
2022/11/11 09:12:03;;;;;;;25.23;18.33;;;358.60;2329.60;;;;;;5108193;28;20028;-90
2022/11/11 09:14:29;;;;;;;25.48;19.02;;;358.60;2329.60;;;;;;5100185;28;20024;-88
2022/11/11 09:16:55;;;;;;;28.42;17.35;;;358.70;2329.60;;;;;;5098923;28;20040;-88
2022/11/11 09:19:21;;;;;;;31.55;19.90;;;358.70;2329.60;;;;;;5093765;28;20021;-87
2022/11/11 09:21:47;;;;;;;40.88;27.33;;;358.80;2329.60;;;;;;5096826;28;20021;-87
2022/11/11 09:24:13;;;;;;;31.67;21.67;;;358.80;2329.60;;;;;;5096150;28;20012;-88
2022/11/11 09:26:39;;;;;;;25.20;16.55;;;358.80;2329.60;;;;;;5098005;28;20088;-88
2022/11/11 09:29:04;;;;;;;22.52;15.82;;;358.80;2329.60;;;;;;5098268;28;20029;-91
2022/11/11 09:31:30;;;;;;;23.08;14.20;;;358.80;2329.60;;;;;;5098022;28;20013;-88
2022/11/11 09:33:56;;;;;;;24.08;15.43;;;358.70;2329.60;;;;;;5098262;28;20021;-87
2022/11/11 09:36:22;;;;;;;21.52;15.30;;;358.80;2329.60;;;;;;5098005;28;20028;-87
2022/11/11 09:38:48;;;;;;;23.80;16.10;;;358.80;2329.60;;;;;;5097463;28;20029;-87
2022/11/11 09:41:50;;;;;;;21.52;14.88;;;358.80;2329.60;;;;;;5097481;28;20084;-88
2022/11/11 09:44:36;;;;;;;20.98;13.80;;;358.80;2329.60;;;;;;5085663;28;20036;-89
2022/11/11 09:47:20;;;;;;;21.30;15.02;;;358.80;2329.60;;;;;;5076246;28;20381;-88
2022/11/11 09:50:00;;;;;;;25.10;16.58;;;358.80;2329.60;;;;;;5094308;28;20028;-88
2022/11/11 09:52:38;;;;;;;23.30;16.55;;;358.80;2329.60;;;;;;5096709;28;20383;-90
2022/11/11 09:55:22;;;;;;;24.75;17.08;;;358.90;2329.60;;;;;;5096232;28;20115;-86
2022/11/11 09:57:57;;;;;;;20.42;14.82;;;358.80;2329.60;;;;;;5096051;28;20024;-89
2022/11/11 10:00:27;;;;;;;24.85;17.77;;;358.80;2329.60;;;;;;5096203;28;20107;-88
2022/11/11 10:03:03;;;;;;;22.45;15.35;;;358.80;2329.60;;;;;;5096016;28;20028;-87
2022/11/11 10:05:56;;;;;;;23.92;15.38;;;358.80;2329.60;;;;;;5093791;28;20048;-82
2022/11/11 10:08:45;;;;;;;23.35;14.07;;;358.70;2329.60;;;;;;5094345;28;20353;-81
2022/11/11 10:11:22;;;;;;;25.15;16.48;;;358.70;2329.60;;;;;;5094466;28;20031;-88
2022/11/11 10:13:48;;;;;;;26.77;17.55;;;358.70;2329.60;;;;;;5096302;28;20024;-86
2022/11/11 10:16:35;;;;;;;38.00;28.05;;;358.80;2329.60;;;;;;5097500;28;20051;-87
2022/11/11 10:19:19;;;;;;;30.40;21.05;;;358.80;2329.60;;;;;;5096449;28;20465;-87
2022/11/11 10:21:48;;;;;;;21.33;14.55;;;358.90;2329.60;;;;;;5095219;28;20028;-89
2022/11/11 10:24:30;;;;;;;30.85;18.88;;;358.90;2329.60;;;;;;5096663;28;20032;-89
2022/11/11 10:27:00;;;;;;;45.50;21.88;;;358.80;2329.60;;;;;;5094591;28;20039;-88
2022/11/11 10:29:40;;;;;;;37.03;25.60;;;358.90;2329.60;;;;;;5095146;28;20028;-87
2022/11/11 10:32:15;;;;;;;44.35;26.92;;;358.90;2329.60;;;;;;5094814;28;20032;-87
2022/11/11 10:34:41;;;;;;;43.92;26.83;;;359.00;2329.60;;;;;;5094633;28;20056;-87
2022/11/11 10:37:22;;;;;;;42.13;23.75;;;359.00;2329.60;;;;;;5094688;28;20051;-84
2022/11/11 10:39:57;;;;;;;44.33;27.20;;;359.00;2329.60;;;;;;5094615;28;20036;-84
2022/11/11 10:42:22;;;;;;;64.15;32.17;;;359.00;2329.60;;;;;;5094435;28;20024;-88
2022/11/11 10:44:50;;;;;;;40.35;23.75;;;359.10;2329.60;;;;;;5094579;28;20077;-85
2022/11/11 10:47:46;;;;;;;35.13;20.85;;;359.00;2329.60;;;;;;5093980;28;20020;-88
2022/11/11 10:50:15;;;;;;;35.53;22.88;;;359.00;2329.60;;;;;;5094031;28;20032;-86
2022/11/11 10:52:49;;;;;;;41.10;23.05;;;359.00;2329.60;;;;;;5094621;28;20402;-88
2022/11/11 10:55:24;;;;;;;36.45;21.48;;;359.00;2329.60;;;;;;5094345;28;20057;-88
2022/11/11 10:58:12;;;;;;;27.17;18.23;;;359.00;2329.60;;;;;;5094630;28;20020;-88
2022/11/11 11:00:40;;;;;;;31.58;18.67;;;359.00;2329.60;;;;;;5068545;28;20064;-87
2022/11/11 11:03:21;;;;;;;36.28;23.80;;;359.00;2329.60;;;;;;5074132;28;20029;-85
2022/11/11 11:06:01;;;;;;;26.27;16.88;;;359.00;2329.60;;;;;;5074026;28;20044;-86
2022/11/11 11:08:33;;;;;;;29.13;18.98;;;359.00;2329.60;;;;;;5073742;28;20024;-87
2022/11/11 11:11:15;;;;;;;34.95;18.33;;;359.00;2329.60;;;;;;5073883;28;20028;-85
2022/11/11 11:14:26;;;;;;;36.75;22.05;;;359.00;2329.60;;;;;;5074859;28;20024;-87
2022/11/11 11:16:54;;;;;;;34.72;18.85;;;359.10;2329.60;;;;;;5073602;28;20036;-89
2022/11/11 11:19:21;;;;;;;45.17;24.98;;;359.10;2329.60;;;;;;5073901;28;20024;-86
2022/11/11 11:21:53;;;;;;;27.02;18.20;;;359.20;2329.60;;;;;;5075230;28;20028;-89
2022/11/11 11:24:24;;;;;;;23.15;14.73;;;359.20;2329.60;;;;;;5073608;28;20459;-91
2022/11/11 11:26:54;;;;;;;28.23;19.40;;;359.20;2329.60;;;;;;5073750;28;20078;-88
2022/11/11 11:29:29;;;;;;;45.42;27.17;;;359.30;2329.60;;;;;;5078052;28;20073;-90
2022/11/11 11:32:09;;;;;;;34.55;22.35;;;384.20;2329.60;;;;;;5079819;28;20056;-90
2022/11/11 11:34:49;;;;;;;24.30;15.80;;;384.30;2329.60;;;;;;5090951;28;20025;-89
2022/11/11 11:37:17;;;;;;;24.00;15.65;;;384.40;2329.60;;;;;;5090928;28;20028;-88
2022/11/11 11:39:43;;;;;;;28.83;19.10;;;384.60;2329.60;;;;;;5093882;28;20025;-89
2022/11/11 11:42:31;;;;;;;27.35;19.08;;;384.60;2329.60;;;;;;5094102;28;20032;-87
2022/11/11 11:44:56;;;;;;;39.38;27.50;;;384.70;2329.60;;;;;;5094983;28;20044;-89
2022/11/11 11:47:41;;;;;;;42.47;28.20;;;384.70;2329.60;;;;;;5094214;28;20056;-90
2022/11/11 11:50:30;;;;;;;40.92;27.92;;;384.60;2329.60;;;;;;5093777;28;20062;-89
2022/11/11 11:53:08;;;;;;;27.05;20.08;;;384.60;2329.60;;;;;;5094453;28;20055;-88
2022/11/11 11:55:37;;;;;;;34.97;25.42;;;384.60;2329.60;;;;;;5094003;28;20119;-86
2022/11/11 11:58:08;;;;;;;28.25;20.60;;;384.60;2329.60;;;;;;5094795;28;20119;-87
2022/11/11 12:01:00;;;;;;;27.13;18.83;;;384.60;2329.60;;;;;;5077553;28;20124;-90
2022/11/11 12:03:53;;;;;;;28.85;19.15;;;384.60;2329.60;;;;;;5077023;28;20024;-89
2022/11/11 12:06:40;;;;;;;31.45;21.65;;;384.40;2329.60;;;;;;5059669;28;20456;-88
2022/11/11 12:09:13;;;;;;;33.15;21.85;;;384.40;2329.60;;;;;;5038232;28;20025;-88
2022/11/11 12:11:43;;;;;;;35.92;23.15;;;384.40;2329.60;;;;;;5037744;28;20029;-88
2022/11/11 12:15:01;;;;;;;25.58;15.98;;;384.30;2329.60;;;;;;5042221;28;20094;-90
2022/11/11 12:17:58;;;;;;;26.83;16.92;;;384.30;2329.60;;;;;;4994647;28;20027;-88
2022/11/11 12:20:40;;;;;;;22.27;15.93;;;384.10;2329.60;;;;;;5071117;28;20010;-88
2022/11/11 12:23:15;;;;;;;35.47;23.58;;;384.20;2329.60;;;;;;5073095;28;20018;-85
2022/11/11 12:25:47;;;;;;;68.80;45.58;;;384.20;2329.60;;;;;;5058120;28;20040;-87
2022/11/11 12:28:39;;;;;;;49.30;33.03;;;384.20;2329.60;;;;;;5059853;28;20079;-86
2022/11/11 12:31:43;;;;;;;45.15;21.95;;;384.20;2329.60;;;;;;5060246;28;20040;-86
2022/11/11 12:34:24;;;;;;;29.15;18.40;;;384.10;2329.60;;;;;;5059727;28;20086;-86
2022/11/11 12:36:59;;;;;;;30.42;19.55;;;384.10;2329.60;;;;;;5059989;28;20105;-84
2022/11/11 12:39:46;;;;;;;38.70;23.40;;;384.10;2329.60;;;;;;5059476;28;20024;-85
2022/11/11 12:42:30;;;;;;;40.72;26.02;;;384.00;2329.60;;;;;;5065570;28;20016;-86
2022/11/11 12:45:22;;;;;;;56.83;33.95;;;384.10;2329.60;;;;;;5063384;28;20029;-85
2022/11/11 12:47:55;;;;;;;41.65;26.67;;;384.00;2329.60;;;;;;5061639;28;20029;-88
2022/11/11 12:50:44;;;;;;;38.75;25.48;;;384.00;2329.60;;;;;;5076783;28;20021;-86
2022/11/11 12:53:34;;;;;;;35.08;23.73;;;384.00;2329.60;;;;;;5059112;28;20028;-88
2022/11/11 12:56:13;;;;;;;32.13;21.80;;;384.00;2329.60;;;;;;5059602;28;20052;-87
2022/11/11 12:59:06;;;;;;;31.60;22.17;;;384.00;2329.60;;;;;;5059512;28;20033;-88
2022/11/11 13:01:50;;;;;;;;;;;384.10;2329.60;;;;;;5060305;28;20028;-87
2022/11/11 13:04:37;;;;;;;31.00;21.67;;;384.10;2329.60;;;;;;5068703;28;19923;-90
2022/11/11 13:07:15;;;;;;;31.63;23.60;;;384.10;2329.60;;;;;;5096466;28;20086;-85
2022/11/11 13:10:03;;;;;;;20.90;14.13;;;384.10;2329.60;;;;;;5098013;28;20024;-85
2022/11/11 13:12:56;;;;;;;22.77;15.15;;;384.20;2329.60;;;;;;5098861;28;20029;-87
2022/11/11 13:15:23;;;;;;;34.90;25.40;;;384.30;2329.60;;;;;;5097952;28;20027;-88
2022/11/11 13:17:51;;;;;;;47.55;33.78;;;384.60;2329.60;;;;;;5095919;28;20020;-87
2022/11/11 13:20:35;;;;;;;30.65;22.50;;;384.70;2329.60;;;;;;5103999;28;20087;-85
2022/11/11 13:23:01;;;;;;;26.48;19.27;;;384.90;2329.60;;;;;;5106429;28;20021;-85
2022/11/11 13:25:33;;;;;;;25.40;16.50;;;409.60;2355.20;;;;;;5102710;28;20042;-86
2022/11/11 13:28:08;;;;;;;23.40;16.48;;;384.90;2329.60;;;;;;5102942;28;20024;-85
2022/11/11 13:30:43;;;;;;;36.97;25.38;;;384.90;2329.60;;;;;;5106265;28;20028;-86
2022/11/11 13:33:13;;;;;;;34.17;22.98;;;384.70;2329.60;;;;;;5106244;28;20109;-86
2022/11/11 13:35:43;;;;;;;51.60;36.22;;;384.70;2329.60;;;;;;5097801;28;20111;-87